Accueil
METAR-TAF:

METAR-TAF

Aéroports :

Aéroport international de Gibraltar

Gibraltar, Gibraltar

latitude: 36-09N, longitude: 005-21W, altitude: 5 m

Observation

Le bulletin a été fait il y a 31 minutes, à 01:50 UTC
Vent 6 kt de sud-ouest
Température 24°C
Humidité 31%
Pression 1013 hPa
Visibilité 10 km ou plus

METAR: LXGB 150150Z AUTO 22006KT 9999 NCD 24/06 Q1013

Heure: 04:21 (02:21 UTC)

Prévision

Le bulletin a été fait il y a 10 heures et 1 minutes, à 16:20 UTC
Prévision valable du 14 à 18 UTC au 14 à 22 UTC
Vent 8 kt de sud-ouest
Visibilité 10 km ou plus
pas de nuages en-dessous de 1500 mètres et pas de cumulonimbus.
Probabilité 40%
du 14 à 18 UTC au 14 à 19 UTC
Vent 12 kt de sud/sud-ouest

TAF: LXGB 141620Z 1418/1422 23008KT CAVOK PROB40 1418/1419 20012KT 520002

Observations et prévisions météorologiques de plus de 4000 aéroports (messages METAR et TAF).

Les stations disponibles sont représentées par des disques jaunes et rouges sur la carte.

Passer la souris dessus pour voir le nom de la station.

Cliquer dessus pour voir les observations et prévisions météorologiques.

Pour changer de carte: cliquez sur les boutons verts avec une croix noire pour zoomer, sur le bouton vert avec un tiret pour effectuer un zoom arrière, ou sur les flèches vertes pour les cartes adjacentes.


METAR-TAF: